createdAt,value
2023-01-20T00:06:28.473Z,3.24
2023-01-20T00:16:32.937Z,3.11
2023-01-20T00:26:36.687Z,2.66
2023-01-20T00:36:40.722Z,3.07
2023-01-20T00:46:46.388Z,3.23
2023-01-20T00:56:50.204Z,3.21
2023-01-20T01:06:54.224Z,3.23
2023-01-20T01:16:57.985Z,3.53
2023-01-20T01:27:01.667Z,3.43
2023-01-20T01:37:05.392Z,3.32
2023-01-20T01:47:10.345Z,3.56
2023-01-20T01:57:14.255Z,3.45
2023-01-20T02:07:21.694Z,3.34
2023-01-20T02:17:34.211Z,3.29
2023-01-20T02:27:56.563Z,3.38
2023-01-20T02:38:15.627Z,3.29
2023-01-20T02:48:19.445Z,3.23
2023-01-20T02:58:40.680Z,3.25
2023-01-20T03:08:46.590Z,3.29
2023-01-20T03:18:51.871Z,3.35
2023-01-20T03:28:56.059Z,3.16
2023-01-20T03:39:00.787Z,2.86
2023-01-20T03:49:23.189Z,2.66
2023-01-20T03:59:27.989Z,1.87
2023-01-20T04:09:47.760Z,2.14
2023-01-20T04:19:51.668Z,1.88
2023-01-20T04:29:55.501Z,1.53
2023-01-20T04:39:59.556Z,1.97
2023-01-20T04:50:09.104Z,2.67
2023-01-20T05:00:18.825Z,3.04
2023-01-20T05:10:22.822Z,3.24
2023-01-20T05:20:26.705Z,3.41
2023-01-20T05:30:30.510Z,3.36
2023-01-20T05:40:35.535Z,3.23
2023-01-20T05:50:39.319Z,3.04
2023-01-20T06:00:43.102Z,3.41
2023-01-20T06:10:50.580Z,3.57
2023-01-20T06:20:59.124Z,3.72
2023-01-20T06:31:05.916Z,3.86
2023-01-20T06:41:11.519Z,3.97
2023-01-20T06:51:17.918Z,4.04
2023-01-20T07:01:27.444Z,4.04
2023-01-20T07:11:31.757Z,3.96
2023-01-20T07:21:35.528Z,4.12
2023-01-20T07:31:40.661Z,4.16
2023-01-20T07:41:49.103Z,3.98
2023-01-20T07:51:52.910Z,4.26
2023-01-20T08:01:57.051Z,4.37
2023-01-20T08:12:02.464Z,4.58
2023-01-20T08:22:07.254Z,4.82
2023-01-20T08:32:11.001Z,4.86
2023-01-20T08:42:14.835Z,4.79
2023-01-20T08:52:19.218Z,4.79
2023-01-20T09:02:24.978Z,5.29
2023-01-20T09:12:28.750Z,5.56
2023-01-20T09:22:34.385Z,4.80
2023-01-20T09:32:38.624Z,4.54
2023-01-20T09:43:14.968Z,4.56
2023-01-20T09:53:26.015Z,5.20
2023-01-20T10:03:42.494Z,4.83
2023-01-20T10:13:56.634Z,4.30
2023-01-20T10:24:29.754Z,3.17
2023-01-20T10:34:54.918Z,3.57
2023-01-20T10:45:01.228Z,3.92
2023-01-20T10:55:22.217Z,4.37
2023-01-20T11:05:30.859Z,4.04
2023-01-20T11:15:38.540Z,4.45
2023-01-20T11:25:55.538Z,4.90
2023-01-20T11:36:01.102Z,4.62
2023-01-20T11:46:30.291Z,4.21
2023-01-20T11:56:43.066Z,3.33
2023-01-20T12:07:05.816Z,2.99
2023-01-20T12:17:31.938Z,2.83
2023-01-20T12:27:53.852Z,2.61
2023-01-20T12:38:06.447Z,2.47
2023-01-20T12:48:25.579Z,2.92
2023-01-20T12:58:44.357Z,2.87
2023-01-20T13:09:23.255Z,2.50
2023-01-20T13:19:49.724Z,2.42
2023-01-20T13:29:59.089Z,2.50
2023-01-20T13:40:06.006Z,2.45
2023-01-20T13:50:24.148Z,2.58
2023-01-20T14:00:27.906Z,2.54
2023-01-20T14:10:31.617Z,2.07
2023-01-20T14:20:37.940Z,1.84
2023-01-20T14:30:41.865Z,1.80
2023-01-20T14:40:51.775Z,1.57
2023-01-20T14:50:57.105Z,1.27
2023-01-20T15:01:06.977Z,0.77
2023-01-20T15:11:17.301Z,0.44
2023-01-20T15:21:28.323Z,0.56
2023-01-20T15:31:32.188Z,0.39
2023-01-20T15:41:36.306Z,0.26
2023-01-20T15:51:40.754Z,0.47
2023-01-20T16:01:50.401Z,0.75
2023-01-20T16:11:54.779Z,0.53
2023-01-20T16:21:58.853Z,0.48
2023-01-20T16:32:04.819Z,0.54
2023-01-20T16:42:16.230Z,0.89
2023-01-20T16:52:20.137Z,0.83
2023-01-20T17:02:24.585Z,0.79
2023-01-20T17:12:28.617Z,0.85
2023-01-20T17:22:32.940Z,0.87
2023-01-20T17:32:39.547Z,0.50
2023-01-20T17:42:44.473Z,0.20
2023-01-20T17:52:48.488Z,0.02
2023-01-20T18:02:55.797Z,-0.47
2023-01-20T18:12:59.720Z,-0.65
2023-01-20T18:23:03.545Z,-0.46
2023-01-20T18:33:07.743Z,-0.38
2023-01-20T18:43:11.821Z,-0.35
2023-01-20T18:53:15.863Z,-0.51
2023-01-20T19:03:20.586Z,-0.37
2023-01-20T19:13:24.905Z,-0.29
2023-01-20T19:23:29.863Z,-0.27
2023-01-20T19:33:36.369Z,-0.33
2023-01-20T19:43:40.740Z,-0.39
2023-01-20T19:53:45.358Z,-0.39
2023-01-20T20:03:50.943Z,-0.40
2023-01-20T20:14:05.545Z,-0.65
2023-01-20T20:24:12.745Z,-0.67
2023-01-20T20:34:19.567Z,-0.75
2023-01-20T20:44:24.609Z,-1.05
2023-01-20T20:54:28.745Z,-1.01
2023-01-20T21:04:32.914Z,-0.70
2023-01-20T21:14:37.353Z,-0.55
2023-01-20T21:24:42.177Z,-0.44
2023-01-20T21:34:46.677Z,-0.53
2023-01-20T21:44:51.260Z,-0.53
2023-01-20T21:54:56.027Z,-0.52
2023-01-20T22:05:14.710Z,-0.45
2023-01-20T22:15:19.255Z,-0.45
2023-01-20T22:25:23.569Z,-0.33
2023-01-20T22:35:27.406Z,-0.35
2023-01-20T22:45:31.373Z,-0.45
2023-01-20T22:55:35.143Z,-0.55
2023-01-20T23:05:40.858Z,-0.69
2023-01-20T23:15:45.149Z,-0.67
2023-01-20T23:25:48.849Z,-0.67
2023-01-20T23:35:52.744Z,-0.85
2023-01-20T23:46:01.297Z,-0.95
2023-01-20T23:56:08.197Z,-0.70
